Smith Reynolds Airport
KINT : now visible

Airfield :











YOU CAN JOIN US ON...

 
LOGIN :

Register | Disclaimer

   EN    FR    IT 

 









Legend :    VFR   Marginal VFR   IFR   Intensive IFR   Very Intensive IFR
Visi :
Ceiling :
>= 8 km
>= 3000ft
5 to 8 km
1000 to 3000 ft
1500m to 5 km
500 to 1000 ft
800 to 1500m
200 to 500 ft
< 800m
< 200 ft
Symbols :   Thunderstorms  Fog  Heavy snow  Heavy precipitations  Wind > 20 kt






- Airport Elevation : 969 ft
- IATA code : INT


KINT - Smith Reynolds

CURRENT METAR :
  • 262354Z 00000KT 10SM CLR 17/16 A3014 RMK AO2 SLP202 T01720156 10211 20167 53008

EXPIRED METARs :
  • 262254Z 14003KT 10SM CLR 18/16 A3013 RMK AO2 SLP199 T01780156
  • 262154Z 16004KT 10SM CLR 20/16 A3011 RMK AO2 SLP190 T02000156

TAF KINT
Valid from the 27 at 00:00 until the 28 at 00:00 UTC


262330Z 2700/2724 20003KT P6SM FEW020 FEW250
TEMPO 2705/2707 3SM BR SCT002
FM270700 19002KT 1/4SM FG VV001
FM271500 27003KT P6SM BKN012
FM271800 28004KT P6SM BKN025
FM272000 31002KT P6SM BKN050
KZTL FIR / North America



MET'MAP, your aeronautical weather chart ! - Copyright ORBIFLY December 2007 - Disclaimer

ORBIFLY MET'MAP TEAM :

Programming & Development : Alexandra Zaïnal
Concept & original design : Baudouin d'Aumeries
Assistance for programming : Marc-Olivier Méhu
Technical & hardware support : Manuel Goepfert

Contact : metmap@orbifly.com




SOURCES & CREDITS :

   NOAA       Earth
Advisory